MSC Federica — HPQE — position and weather

sailwx.info

Track history (hours):
 
Tides and Currents Weather Stations Pressure Air Temp Water Temp Dewpoint Dewpoint Depression Visibility Wind Speed Wind Dir Waves Ship Positions

MSC Federica

Last reported at 2015-May-25 06:34 UTC. Time now 2015-May-26 11:51 UTC.
Position N 38°42' W 074°10'.

Length 294 m; draft 9.8 m.

Type: Ship (hazmat cat B). MMSI: 357363000.

Date/timePositionNaut miles runAvg speedWind from/ knotsBaromVisibWave heightAir tempDewpointWater temp
2015-May-25 06:34N 38°42' W 074°10'2219.2
2015-May-25 05:24N 39°04' W 074°04'1619.0
2015-May-25 04:34N 39°20' W 073°60'1919.1
2015-May-25 03:33N 39°38' W 073°55'1919.1
2015-May-25 02:33N 39°57' W 073°52'1918.8
2015-May-25 01:34N 40°16' W 073°49'1313.4
2015-May-25 00:34N 40°29' W 073°54'1312.6
2015-May-24 23:33N 40°39' W 074°04'4 3.6
2015-May-24 22:33N 40°40' W 074°08'1 1.0
2015-May-24 21:31N 40°41' W 074°09'0 0.0
2015-May-24 20:31N 40°41' W 074°09'0 0.0
2015-May-24 19:31N 40°41' W 074°09'0 0.0
2015-May-24 18:31N 40°41' W 074°09'0 0.0
2015-May-24 17:31N 40°41' W 074°09'0 0.0
2015-May-24 16:28N 40°41' W 074°09'0 0.0
2015-May-24 15:31N 40°41' W 074°09'0 0.0
2015-May-24 14:31N 40°41' W 074°09'0 0.0
2015-May-24 13:31N 40°41' W 074°09'0 0.0
2015-May-24 12:31N 40°41' W 074°09'0 0.0
2015-May-24 11:28N 40°41' W 074°09'0 0.0
2015-May-24 10:28N 40°41' W 074°09'0 0.0
2015-May-24 09:25N 40°41' W 074°09'0 0.0
2015-May-24 08:31N 40°41' W 074°09'0 0.0
2015-May-24 07:31N 40°41' W 074°09'0 0.0
2015-May-24 06:28N 40°41' W 074°09'0 0.0
2015-May-24 05:32N 40°41' W 074°09'0 0.0
2015-May-24 04:31N 40°41' W 074°09'0 0.0
2015-May-24 03:25N 40°41' W 074°09'0 0.0
2015-May-24 02:28N 40°41' W 074°09'0 0.0
2015-May-24 01:31N 40°41' W 074°09'0 0.0
2015-May-24 00:31N 40°41' W 074°09'0 0.0
2015-May-23 23:31N 40°41' W 074°09'0 0.0
2015-May-23 22:31N 40°41' W 074°09'0 0.0
2015-May-23 21:31N 40°41' W 074°09'0 0.0
2015-May-23 20:28N 40°41' W 074°09'0 0.0
2015-May-23 19:31N 40°41' W 074°09'0 0.0
2015-May-23 18:31N 40°41' W 074°09'0 0.0
2015-May-23 17:22N 40°41' W 074°09'0 0.0
2015-May-23 16:25N 40°41' W 074°09'0 0.0
2015-May-23 15:28N 40°41' W 074°09'0 0.0
2015-May-23 14:31N 40°41' W 074°09'0 0.0
2015-May-23 13:28N 40°41' W 074°09'0 0.0
2015-May-23 12:31N 40°41' W 074°09'1 0.9
2015-May-23 11:34N 40°41' W 074°08'4 4.2
2015-May-23 10:33N 40°39' W 074°04'1211.6
2015-May-23 09:33N 40°29' W 073°55'9 7.6
2015-May-23 08:25N 40°30' W 073°43'2 0.3
2015-May-23 02:05N 40°31' W 073°41'0 0.1
2015-May-23 00:11N 40°31' W 073°41'0 0.0
2015-May-22 23:32N 40°31' W 073°41'0 0.1
2015-May-22 22:20N 40°31' W 073°41'0 0.0
2015-May-22 21:32N 40°31' W 073°41'0 0.0
2015-May-22 20:26N 40°31' W 073°41'7 7.2
2015-May-22 19:32N 40°25' W 073°45'1816.1
2015-May-22 18:23N 40°07' W 073°45'1416.1
2015-May-22 17:33N 39°53' W 073°43'1616.1
2015-May-22 16:34N 39°38' W 073°42'1616.2
2015-May-22 15:34N 39°22' W 073°48'1916.2
2015-May-22 14:21N 39°04' W 073°57'1316.4
2015-May-22 13:33N 38°52' W 074°03'4013.2
2015-May-22 10:32N 38°24' W 074°39'1717.0
2015-May-22 09:33N 38°37' W 074°53'1716.6
2015-May-22 08:34N 38°51' W 075°04'1616.2
2015-May-22 07:33N 39°06' W 075°12'2914.2
2015-May-22 05:32N 39°29' W 075°34'1111.4
2015-May-22 04:33N 39°40' W 075°32'1010.0
2015-May-22 03:33N 39°48' W 075°25'10 9.9
2015-May-22 02:33N 39°52' W 075°13'4 4.1
2015-May-22 01:33N 39°54' W 075°08'0 0.0
2015-May-22 00:33N 39°54' W 075°08'0 0.0
2015-May-21 23:33N 39°54' W 075°08'0 0.0
2015-May-21 22:33N 39°54' W 075°08'0 0.0
2015-May-21 21:33N 39°54' W 075°08'0 0.0
2015-May-21 20:33N 39°54' W 075°08'0 0.0
2015-May-21 19:33N 39°54' W 075°08'0 0.0
2015-May-21 18:33N 39°54' W 075°08'0 0.0
2015-May-21 17:33N 39°54' W 075°08'0 0.0
2015-May-21 16:33N 39°54' W 075°08'0 0.0
2015-May-21 15:30N 39°54' W 075°08'0 0.0
2015-May-21 14:33N 39°54' W 075°08'0 0.0
2015-May-21 13:33N 39°54' W 075°08'0 0.0
2015-May-21 12:33N 39°54' W 075°08'0 0.0
2015-May-21 11:33N 39°54' W 075°08'0 0.0
2015-May-21 10:33N 39°54' W 075°08'0 0.0
2015-May-21 09:33N 39°54' W 075°08'0 0.0
2015-May-21 08:30N 39°54' W 075°08'0 0.0
2015-May-21 07:33N 39°54' W 075°08'0 0.0
2015-May-21 06:33N 39°54' W 075°08'0 0.0
2015-May-21 05:33N 39°54' W 075°08'5 4.7
2015-May-21 04:33N 39°52' W 075°14'1010.3
2015-May-21 03:33N 39°48' W 075°26'1211.9
2015-May-21 02:33N 39°38' W 075°34'1414.5
2015-May-21 01:33N 39°24' W 075°30'1615.9
2015-May-21 00:33N 39°11' W 075°17'1514.5
2015-May-20 23:33N 38°59' W 075°08'1312.5
2015-May-20 22:33N 38°47' W 075°02'1010.3
2015-May-20 21:33N 38°40' W 074°52'15 1.6
2015-May-20 12:20N 38°30' W 074°39'3115.3
2015-May-20 10:19N 37°59' W 074°39'21717.0
2015-May-19 21:33N 34°25' W 075°30'2019.9
2015-May-19 20:33N 34°07' W 075°39'4219.2
2015-May-19 18:24N 33°29' W 076°01'  
Track history (hours):
 
Tides and Currents Weather Stations Pressure Air Temp Water Temp Dewpoint Dewpoint Depression Visibility Wind Speed Wind Dir Waves Ship Positions

MSC Federica

Last reported at 2015-May-25 06:34 UTC. Time now 2015-May-26 11:51 UTC.
Position N 38°42' W 074°10'.

Length 294 m; draft 9.8 m.

Type: Ship (hazmat cat B). MMSI: 357363000.

Date/timePositionNaut miles runAvg speedWind from/ knotsBaromVisibWave heightAir tempDewpointWater temp
2015-May-25 06:34N 38°42' W 074°10'2219.2
2015-May-25 05:24N 39°04' W 074°04'1619.0
2015-May-25 04:34N 39°20' W 073°60'1919.1
2015-May-25 03:33N 39°38' W 073°55'1919.1
2015-May-25 02:33N 39°57' W 073°52'1918.8
2015-May-25 01:34N 40°16' W 073°49'1313.4
2015-May-25 00:34N 40°29' W 073°54'1312.6
2015-May-24 23:33N 40°39' W 074°04'4 3.6
2015-May-24 22:33N 40°40' W 074°08'1 1.0
2015-May-24 21:31N 40°41' W 074°09'0 0.0
2015-May-24 20:31N 40°41' W 074°09'0 0.0
2015-May-24 19:31N 40°41' W 074°09'0 0.0
2015-May-24 18:31N 40°41' W 074°09'0 0.0
2015-May-24 17:31N 40°41' W 074°09'0 0.0
2015-May-24 16:28N 40°41' W 074°09'0 0.0
2015-May-24 15:31N 40°41' W 074°09'0 0.0
2015-May-24 14:31N 40°41' W 074°09'0 0.0
2015-May-24 13:31N 40°41' W 074°09'0 0.0
2015-May-24 12:31N 40°41' W 074°09'0 0.0
2015-May-24 11:28N 40°41' W 074°09'0 0.0
2015-May-24 10:28N 40°41' W 074°09'0 0.0
2015-May-24 09:25N 40°41' W 074°09'0 0.0
2015-May-24 08:31N 40°41' W 074°09'0 0.0
2015-May-24 07:31N 40°41' W 074°09'0 0.0
2015-May-24 06:28N 40°41' W 074°09'0 0.0
2015-May-24 05:32N 40°41' W 074°09'0 0.0
2015-May-24 04:31N 40°41' W 074°09'0 0.0
2015-May-24 03:25N 40°41' W 074°09'0 0.0
2015-May-24 02:28N 40°41' W 074°09'0 0.0
2015-May-24 01:31N 40°41' W 074°09'0 0.0
2015-May-24 00:31N 40°41' W 074°09'0 0.0
2015-May-23 23:31N 40°41' W 074°09'0 0.0
2015-May-23 22:31N 40°41' W 074°09'0 0.0
2015-May-23 21:31N 40°41' W 074°09'0 0.0
2015-May-23 20:28N 40°41' W 074°09'0 0.0
2015-May-23 19:31N 40°41' W 074°09'0 0.0
2015-May-23 18:31N 40°41' W 074°09'0 0.0
2015-May-23 17:22N 40°41' W 074°09'0 0.0
2015-May-23 16:25N 40°41' W 074°09'0 0.0
2015-May-23 15:28N 40°41' W 074°09'0 0.0
2015-May-23 14:31N 40°41' W 074°09'0 0.0
2015-May-23 13:28N 40°41' W 074°09'0 0.0
2015-May-23 12:31N 40°41' W 074°09'1 0.9
2015-May-23 11:34N 40°41' W 074°08'4 4.2
2015-May-23 10:33N 40°39' W 074°04'1211.6
2015-May-23 09:33N 40°29' W 073°55'9 7.6
2015-May-23 08:25N 40°30' W 073°43'2 0.3
2015-May-23 02:05N 40°31' W 073°41'0 0.1
2015-May-23 00:11N 40°31' W 073°41'0 0.0
2015-May-22 23:32N 40°31' W 073°41'0 0.1
2015-May-22 22:20N 40°31' W 073°41'0 0.0
2015-May-22 21:32N 40°31' W 073°41'0 0.0
2015-May-22 20:26N 40°31' W 073°41'7 7.2
2015-May-22 19:32N 40°25' W 073°45'1816.1
2015-May-22 18:23N 40°07' W 073°45'1416.1
2015-May-22 17:33N 39°53' W 073°43'1616.1
2015-May-22 16:34N 39°38' W 073°42'1616.2
2015-May-22 15:34N 39°22' W 073°48'1916.2
2015-May-22 14:21N 39°04' W 073°57'1316.4
2015-May-22 13:33N 38°52' W 074°03'4013.2
2015-May-22 10:32N 38°24' W 074°39'1717.0
2015-May-22 09:33N 38°37' W 074°53'1716.6
2015-May-22 08:34N 38°51' W 075°04'1616.2
2015-May-22 07:33N 39°06' W 075°12'2914.2
2015-May-22 05:32N 39°29' W 075°34'1111.4
2015-May-22 04:33N 39°40' W 075°32'1010.0
2015-May-22 03:33N 39°48' W 075°25'10 9.9
2015-May-22 02:33N 39°52' W 075°13'4 4.1
2015-May-22 01:33N 39°54' W 075°08'0 0.0
2015-May-22 00:33N 39°54' W 075°08'0 0.0
2015-May-21 23:33N 39°54' W 075°08'0 0.0
2015-May-21 22:33N 39°54' W 075°08'0 0.0
2015-May-21 21:33N 39°54' W 075°08'0 0.0
2015-May-21 20:33N 39°54' W 075°08'0 0.0
2015-May-21 19:33N 39°54' W 075°08'0 0.0
2015-May-21 18:33N 39°54' W 075°08'0 0.0
2015-May-21 17:33N 39°54' W 075°08'0 0.0
2015-May-21 16:33N 39°54' W 075°08'0 0.0
2015-May-21 15:30N 39°54' W 075°08'0 0.0
2015-May-21 14:33N 39°54' W 075°08'0 0.0
2015-May-21 13:33N 39°54' W 075°08'0 0.0
2015-May-21 12:33N 39°54' W 075°08'0 0.0
2015-May-21 11:33N 39°54' W 075°08'0 0.0
2015-May-21 10:33N 39°54' W 075°08'0 0.0
2015-May-21 09:33N 39°54' W 075°08'0 0.0
2015-May-21 08:30N 39°54' W 075°08'0 0.0
2015-May-21 07:33N 39°54' W 075°08'0 0.0
2015-May-21 06:33N 39°54' W 075°08'0 0.0
2015-May-21 05:33N 39°54' W 075°08'5 4.7
2015-May-21 04:33N 39°52' W 075°14'1010.3
2015-May-21 03:33N 39°48' W 075°26'1211.9
2015-May-21 02:33N 39°38' W 075°34'1414.5
2015-May-21 01:33N 39°24' W 075°30'1615.9
2015-May-21 00:33N 39°11' W 075°17'1514.5
2015-May-20 23:33N 38°59' W 075°08'1312.5
2015-May-20 22:33N 38°47' W 075°02'1010.3
2015-May-20 21:33N 38°40' W 074°52'15 1.6
2015-May-20 12:20N 38°30' W 074°39'3115.3
2015-May-20 10:19N 37°59' W 074°39'21717.0
2015-May-19 21:33N 34°25' W 075°30'2019.9
2015-May-19 20:33N 34°07' W 075°39'4219.2
2015-May-19 18:24N 33°29' W 076°01'  

Dump ship's entire track history